createdAt,value
2022-10-26T00:01:56.403Z,8.80
2022-10-26T00:04:23.080Z,8.90
2022-10-26T00:06:49.617Z,8.80
2022-10-26T00:09:16.155Z,8.80
2022-10-26T00:11:42.695Z,8.70
2022-10-26T00:14:09.260Z,8.70
2022-10-26T00:16:35.801Z,8.70
2022-10-26T00:19:02.340Z,8.70
2022-10-26T00:21:28.933Z,8.70
2022-10-26T00:23:55.460Z,8.70
2022-10-26T00:26:22.051Z,8.70
2022-10-26T00:28:48.878Z,8.70
2022-10-26T00:31:15.567Z,8.70
2022-10-26T00:33:42.087Z,8.80
2022-10-26T00:36:13.772Z,8.80
2022-10-26T00:38:45.780Z,8.80
2022-10-26T00:41:14.352Z,8.90
2022-10-26T00:43:40.915Z,8.90
2022-10-26T00:46:15.142Z,8.80
2022-10-26T00:48:42.694Z,8.80
2022-10-26T00:51:10.721Z,8.50
2022-10-26T00:53:37.273Z,8.20
2022-10-26T00:56:03.879Z,8.10
2022-10-26T00:58:30.441Z,8.00
2022-10-26T01:00:57.042Z,8.00
2022-10-26T01:03:25.385Z,8.10
2022-10-26T01:05:52.181Z,8.10
2022-10-26T01:08:18.853Z,8.10
2022-10-26T01:10:45.411Z,8.20
2022-10-26T01:13:11.957Z,8.20
2022-10-26T01:15:52.419Z,8.10
2022-10-26T01:18:25.422Z,8.10
2022-10-26T01:21:01.186Z,8.00
2022-10-26T01:23:33.487Z,8.00
2022-10-26T01:26:08.641Z,8.00
2022-10-26T01:28:35.140Z,8.00
2022-10-26T01:31:01.679Z,8.00
2022-10-26T01:33:30.200Z,7.90
2022-10-26T01:36:01.628Z,7.90
2022-10-26T01:38:42.064Z,7.90
2022-10-26T01:41:12.989Z,7.90
2022-10-26T01:43:43.674Z,8.00
2022-10-26T01:46:10.308Z,8.00
2022-10-26T01:48:36.869Z,8.00
2022-10-26T01:51:04.752Z,8.00
2022-10-26T01:53:31.288Z,7.90
2022-10-26T01:55:57.851Z,7.90
2022-10-26T01:58:43.137Z,7.80
2022-10-26T02:01:18.812Z,7.70
2022-10-26T02:03:46.362Z,7.70
2022-10-26T02:06:17.295Z,7.60
2022-10-26T02:08:49.847Z,7.60
2022-10-26T02:11:19.411Z,7.60
2022-10-26T02:13:47.251Z,7.60
2022-10-26T02:16:21.689Z,7.60
2022-10-26T02:18:48.185Z,7.60
2022-10-26T02:21:19.410Z,7.60
2022-10-26T02:23:45.997Z,7.60
2022-10-26T02:26:13.018Z,7.60
2022-10-26T02:28:42.027Z,7.50
2022-10-26T02:31:08.605Z,7.50
2022-10-26T02:33:36.872Z,7.40
2022-10-26T02:36:04.003Z,7.40
2022-10-26T02:38:30.562Z,7.40
2022-10-26T02:40:57.131Z,7.30
2022-10-26T02:43:23.681Z,7.30
2022-10-26T02:45:54.071Z,7.30
2022-10-26T02:48:20.631Z,7.30
2022-10-26T02:50:47.144Z,7.30
2022-10-26T02:53:39.961Z,7.30
2022-10-26T02:56:08.209Z,7.30
2022-10-26T02:58:35.159Z,7.40
2022-10-26T03:01:01.742Z,7.40
2022-10-26T03:03:28.285Z,7.40
2022-10-26T03:05:54.831Z,7.40
2022-10-26T03:08:21.401Z,7.40
2022-10-26T03:10:48.031Z,7.50
2022-10-26T03:13:14.729Z,7.40
2022-10-26T03:15:41.409Z,7.50
2022-10-26T03:18:08.027Z,7.50
2022-10-26T03:20:34.589Z,7.50
2022-10-26T03:23:01.153Z,7.50
2022-10-26T03:25:27.789Z,7.50
2022-10-26T03:27:58.073Z,7.50
2022-10-26T03:30:24.634Z,7.50
2022-10-26T03:32:51.194Z,7.50
2022-10-26T03:35:17.849Z,7.60
2022-10-26T03:37:44.368Z,7.60
2022-10-26T03:40:11.101Z,7.60
2022-10-26T03:42:37.653Z,7.60
2022-10-26T03:45:04.609Z,7.60
2022-10-26T03:47:31.143Z,7.50
2022-10-26T03:49:57.740Z,7.60
2022-10-26T03:52:24.705Z,7.60
2022-10-26T03:54:51.439Z,7.60
2022-10-26T03:57:17.972Z,7.60
2022-10-26T03:59:44.520Z,7.60
2022-10-26T04:02:11.997Z,7.60
2022-10-26T04:04:38.557Z,7.60
2022-10-26T04:07:05.102Z,7.70
2022-10-26T04:09:31.633Z,7.70
2022-10-26T04:11:58.172Z,7.70
2022-10-26T04:14:24.781Z,7.80
2022-10-26T04:16:51.332Z,7.80
2022-10-26T04:19:17.861Z,7.80
2022-10-26T04:21:44.429Z,7.90
2022-10-26T04:24:11.590Z,7.90
2022-10-26T04:26:38.138Z,8.00
2022-10-26T04:29:06.688Z,8.00
2022-10-26T04:31:33.469Z,8.00
2022-10-26T04:34:00.051Z,8.00
2022-10-26T04:36:26.595Z,8.00
2022-10-26T04:38:53.141Z,8.00
2022-10-26T04:41:19.684Z,8.00
2022-10-26T04:43:46.207Z,8.00
2022-10-26T04:46:16.702Z,8.10
2022-10-26T04:48:43.534Z,8.10
2022-10-26T04:51:10.077Z,8.10
2022-10-26T04:53:36.656Z,8.10
2022-10-26T04:56:03.283Z,8.10
2022-10-26T04:58:29.849Z,8.20
2022-10-26T05:00:56.451Z,8.20
2022-10-26T05:03:23.017Z,8.30
2022-10-26T05:05:49.574Z,8.30
2022-10-26T05:08:16.205Z,8.30
2022-10-26T05:10:42.880Z,8.30
2022-10-26T05:13:09.846Z,8.30
2022-10-26T05:15:36.404Z,8.30
2022-10-26T05:18:03.950Z,8.30
2022-10-26T05:20:31.274Z,8.30
2022-10-26T05:23:01.632Z,8.30
2022-10-26T05:25:28.877Z,8.40
2022-10-26T05:27:59.018Z,8.40
2022-10-26T05:30:25.634Z,8.40
2022-10-26T05:32:58.575Z,8.50
2022-10-26T05:35:25.796Z,8.40
2022-10-26T05:37:52.515Z,8.40
2022-10-26T05:40:19.070Z,8.40
2022-10-26T05:42:45.753Z,8.40
2022-10-26T05:45:12.421Z,8.50
2022-10-26T05:47:39.649Z,8.60
2022-10-26T05:50:06.270Z,8.60
2022-10-26T05:52:42.078Z,8.60
2022-10-26T05:55:08.978Z,8.60
2022-10-26T05:57:35.797Z,8.60
2022-10-26T06:00:03.196Z,8.60
2022-10-26T06:02:33.874Z,8.70
2022-10-26T06:05:03.004Z,8.70
2022-10-26T06:07:29.676Z,8.80
2022-10-26T06:09:56.344Z,8.80
2022-10-26T06:12:23.096Z,8.80
2022-10-26T06:14:49.760Z,8.90
2022-10-26T06:17:35.300Z,8.90
2022-10-26T06:20:22.134Z,8.80
2022-10-26T06:22:54.325Z,8.80
2022-10-26T06:25:26.026Z,8.80
2022-10-26T06:27:58.229Z,8.90
2022-10-26T06:30:25.114Z,8.90
2022-10-26T06:33:01.193Z,9.00
2022-10-26T06:35:41.104Z,9.00
2022-10-26T06:38:08.736Z,9.10
2022-10-26T06:40:35.478Z,9.10
2022-10-26T06:43:02.009Z,9.10
2022-10-26T06:45:28.747Z,9.10
2022-10-26T06:47:55.421Z,9.10
2022-10-26T06:50:30.103Z,9.20
2022-10-26T06:52:59.700Z,9.30
2022-10-26T06:55:27.297Z,9.40
2022-10-26T06:57:53.853Z,9.50
2022-10-26T07:00:21.195Z,9.60
2022-10-26T07:02:48.826Z,9.70
2022-10-26T07:05:15.703Z,9.70
2022-10-26T07:07:45.409Z,9.70
2022-10-26T07:10:12.056Z,9.70
2022-10-26T07:12:38.596Z,9.70
2022-10-26T07:15:05.482Z,9.80
2022-10-26T07:17:32.213Z,9.90
2022-10-26T07:19:58.765Z,9.90
2022-10-26T07:22:25.318Z,10.00
2022-10-26T07:24:52.333Z,10.10
2022-10-26T07:27:23.953Z,10.10
2022-10-26T07:29:50.490Z,10.20
2022-10-26T07:32:17.237Z,10.20
2022-10-26T07:34:43.765Z,10.30
2022-10-26T07:37:10.316Z,10.30
2022-10-26T07:39:36.878Z,10.40
2022-10-26T07:42:03.496Z,10.50
2022-10-26T07:44:30.066Z,10.50
2022-10-26T07:46:57.157Z,10.60
2022-10-26T07:49:26.224Z,10.70
2022-10-26T07:51:54.553Z,10.80
2022-10-26T07:54:21.084Z,10.80
2022-10-26T07:56:50.692Z,10.80
2022-10-26T07:59:18.267Z,10.90
2022-10-26T08:01:44.867Z,10.90
2022-10-26T08:04:11.459Z,10.90
2022-10-26T08:06:38.092Z,10.90
2022-10-26T08:09:04.677Z,10.90
2022-10-26T08:11:31.227Z,11.00
2022-10-26T08:13:57.804Z,11.10
2022-10-26T08:16:24.373Z,11.10
2022-10-26T08:18:51.038Z,11.20
2022-10-26T08:21:35.531Z,11.20
2022-10-26T08:24:02.993Z,11.30
2022-10-26T08:26:30.571Z,11.40
2022-10-26T08:28:57.153Z,11.40
2022-10-26T08:31:23.703Z,11.50
2022-10-26T08:33:50.338Z,11.60
2022-10-26T08:36:19.865Z,11.60
2022-10-26T08:38:47.400Z,11.60
2022-10-26T08:41:14.098Z,11.60
2022-10-26T08:43:41.053Z,11.60
2022-10-26T08:46:14.865Z,11.70
2022-10-26T08:48:43.282Z,11.70
2022-10-26T08:51:20.396Z,11.70
2022-10-26T08:53:48.593Z,11.80
2022-10-26T08:56:15.915Z,11.80
2022-10-26T08:58:50.100Z,11.90
2022-10-26T09:01:16.804Z,11.90
2022-10-26T09:03:43.419Z,12.00
2022-10-26T09:06:12.940Z,12.10
2022-10-26T09:08:48.623Z,12.10
2022-10-26T09:11:28.120Z,12.20
2022-10-26T09:13:57.595Z,12.30
2022-10-26T09:16:42.125Z,12.30
2022-10-26T09:19:17.792Z,12.50
2022-10-26T09:21:48.425Z,12.60
2022-10-26T09:24:15.991Z,12.70
2022-10-26T09:26:55.637Z,12.80
2022-10-26T09:29:25.060Z,12.90
2022-10-26T09:31:51.671Z,13.00
2022-10-26T09:34:27.286Z,13.10
2022-10-26T09:36:54.768Z,13.00
2022-10-26T09:39:50.746Z,13.10
2022-10-26T09:42:18.898Z,13.20
2022-10-26T09:44:48.698Z,13.30
2022-10-26T09:47:34.877Z,13.40
2022-10-26T09:50:04.303Z,13.40
2022-10-26T09:52:30.843Z,13.50
2022-10-26T09:54:57.373Z,13.60
2022-10-26T09:57:23.924Z,13.60
2022-10-26T09:59:52.495Z,13.70
2022-10-26T10:02:34.554Z,13.70
2022-10-26T10:05:01.128Z,13.70
2022-10-26T10:07:27.721Z,13.60
2022-10-26T10:10:07.028Z,13.60
2022-10-26T10:12:33.572Z,13.50
2022-10-26T10:15:00.214Z,13.50
2022-10-26T10:17:26.770Z,13.60
2022-10-26T10:19:53.314Z,13.70
2022-10-26T10:22:23.489Z,13.90
2022-10-26T10:24:56.978Z,14.20
2022-10-26T10:27:23.518Z,14.30
2022-10-26T10:29:51.286Z,14.30
2022-10-26T10:32:20.699Z,14.50
2022-10-26T10:34:47.632Z,14.60
2022-10-26T10:37:33.045Z,14.70
2022-10-26T10:40:00.530Z,14.80
2022-10-26T10:42:27.812Z,14.80
2022-10-26T10:44:54.662Z,14.90
2022-10-26T10:47:22.530Z,14.80
2022-10-26T10:49:57.043Z,14.90
2022-10-26T10:52:30.371Z,14.90
2022-10-26T10:55:17.247Z,14.90
2022-10-26T10:57:48.290Z,14.80
2022-10-26T11:00:15.215Z,14.90
2022-10-26T11:03:00.203Z,15.00
2022-10-26T11:05:45.426Z,15.00
2022-10-26T11:08:23.126Z,15.00
2022-10-26T11:11:08.498Z,15.00
2022-10-26T11:13:39.322Z,15.20
2022-10-26T11:16:07.357Z,15.40
2022-10-26T11:18:35.127Z,15.60
2022-10-26T11:21:24.799Z,15.70
2022-10-26T11:24:13.164Z,15.80
2022-10-26T11:26:59.687Z,15.90
2022-10-26T11:29:33.819Z,15.80
2022-10-26T11:32:17.536Z,15.70
2022-10-26T11:34:45.709Z,15.70
2022-10-26T11:37:31.181Z,15.90
2022-10-26T11:40:04.046Z,16.00
2022-10-26T11:42:34.936Z,16.00
2022-10-26T11:45:01.440Z,16.20
2022-10-26T11:47:38.500Z,16.20
2022-10-26T11:50:25.743Z,16.20
2022-10-26T11:53:02.672Z,16.30
2022-10-26T11:55:29.419Z,16.50
2022-10-26T11:57:56.025Z,16.70
2022-10-26T12:00:22.608Z,16.80
2022-10-26T12:02:56.579Z,16.90
2022-10-26T12:05:27.242Z,17.00
2022-10-26T12:07:54.931Z,17.30
2022-10-26T12:10:24.583Z,17.50
2022-10-26T12:12:53.803Z,17.50
2022-10-26T12:15:30.855Z,17.60
2022-10-26T12:18:20.322Z,17.60
2022-10-26T12:21:06.100Z,17.70
2022-10-26T12:23:40.826Z,17.80
2022-10-26T12:26:23.862Z,17.90
2022-10-26T12:29:02.815Z,17.80
2022-10-26T12:31:32.472Z,17.70
2022-10-26T12:33:59.454Z,17.60
2022-10-26T12:36:47.667Z,17.60
2022-10-26T12:39:30.516Z,17.80
2022-10-26T12:42:00.459Z,17.80
2022-10-26T12:44:48.463Z,17.90
2022-10-26T12:47:27.558Z,18.00
2022-10-26T12:50:06.495Z,18.10
2022-10-26T12:52:49.061Z,18.10
2022-10-26T12:55:28.364Z,18.10
2022-10-26T12:58:03.872Z,18.20
2022-10-26T13:00:30.524Z,18.30
2022-10-26T13:03:15.650Z,18.30
2022-10-26T13:05:51.298Z,18.40
2022-10-26T13:08:17.837Z,18.40
2022-10-26T13:11:04.936Z,18.40
2022-10-26T13:13:31.797Z,18.40
2022-10-26T13:15:58.456Z,18.40
2022-10-26T13:18:27.464Z,18.40
2022-10-26T13:21:06.732Z,18.40
2022-10-26T13:23:34.052Z,18.50
2022-10-26T13:26:03.632Z,18.50
2022-10-26T13:28:35.009Z,18.50
2022-10-26T13:31:01.727Z,18.50
2022-10-26T13:33:38.200Z,18.50
2022-10-26T13:36:06.864Z,18.50
2022-10-26T13:38:34.428Z,18.50
2022-10-26T13:41:06.307Z,18.40
2022-10-26T13:43:32.832Z,18.40
2022-10-26T13:45:59.834Z,18.30
2022-10-26T13:48:30.010Z,18.40
2022-10-26T13:51:00.275Z,18.40
2022-10-26T13:53:29.881Z,18.40
2022-10-26T13:56:03.967Z,18.40
2022-10-26T13:58:34.791Z,18.30
2022-10-26T14:01:11.625Z,18.20
2022-10-26T14:03:38.420Z,18.20
2022-10-26T14:06:06.056Z,18.20
2022-10-26T14:08:32.966Z,18.20
2022-10-26T14:10:59.544Z,18.10
2022-10-26T14:13:26.583Z,18.10
2022-10-26T14:15:53.790Z,18.00
2022-10-26T14:18:30.105Z,17.90
2022-10-26T14:21:03.773Z,17.90
2022-10-26T14:23:37.208Z,17.90
2022-10-26T14:26:04.385Z,18.00
2022-10-26T14:28:32.084Z,18.00
2022-10-26T14:31:17.910Z,18.00
2022-10-26T14:33:47.101Z,18.00
2022-10-26T14:36:13.791Z,18.10
2022-10-26T14:38:44.915Z,18.10
2022-10-26T14:41:11.816Z,18.10
2022-10-26T14:43:38.437Z,18.10
2022-10-26T14:46:05.047Z,18.00
2022-10-26T14:48:32.096Z,17.90
2022-10-26T14:50:59.157Z,17.80
2022-10-26T14:53:30.278Z,17.70
2022-10-26T14:55:57.115Z,17.60
2022-10-26T15:01:36.618Z,17.30
2022-10-26T15:04:04.611Z,17.30
2022-10-26T15:06:39.482Z,17.20
2022-10-26T15:09:06.830Z,17.10
2022-10-26T15:11:33.944Z,17.10
2022-10-26T15:14:00.569Z,17.00
2022-10-26T15:16:28.151Z,17.00
2022-10-26T15:19:14.958Z,16.90
2022-10-26T15:21:47.495Z,16.90
2022-10-26T15:24:20.209Z,16.80
2022-10-26T15:26:46.832Z,16.80
2022-10-26T15:29:32.231Z,16.80
2022-10-26T15:32:02.451Z,16.70
2022-10-26T15:34:29.077Z,16.60
2022-10-26T15:36:55.666Z,16.60
2022-10-26T15:39:22.660Z,16.60
2022-10-26T15:41:49.385Z,16.60
2022-10-26T15:44:20.149Z,16.50
2022-10-26T15:46:46.775Z,16.40
2022-10-26T15:49:17.258Z,16.40
2022-10-26T15:51:44.530Z,16.30
2022-10-26T15:54:11.068Z,16.20
2022-10-26T15:56:40.475Z,16.20
2022-10-26T15:59:13.800Z,16.10
2022-10-26T16:01:40.475Z,16.10
2022-10-26T16:04:07.986Z,16.00
2022-10-26T16:06:34.811Z,16.00
2022-10-26T16:09:02.024Z,15.90
2022-10-26T16:11:28.689Z,15.80
2022-10-26T16:13:57.173Z,15.80
2022-10-26T16:16:26.169Z,15.70
2022-10-26T16:18:58.037Z,15.70
2022-10-26T16:21:33.004Z,15.70
2022-10-26T16:23:59.555Z,15.70
2022-10-26T16:26:26.103Z,15.60
2022-10-26T16:28:52.688Z,15.50
2022-10-26T16:31:19.430Z,15.50
2022-10-26T16:33:46.077Z,15.50
2022-10-26T16:36:12.704Z,15.40
2022-10-26T16:38:39.247Z,15.40
2022-10-26T16:41:05.772Z,15.40
2022-10-26T16:43:32.787Z,15.50
2022-10-26T16:45:59.485Z,15.40
2022-10-26T16:48:26.213Z,15.30
2022-10-26T16:50:52.749Z,15.30
2022-10-26T16:53:19.621Z,15.20
2022-10-26T16:55:46.396Z,15.20
2022-10-26T16:58:12.979Z,15.20
2022-10-26T17:00:39.506Z,15.10
2022-10-26T17:03:06.168Z,15.20
2022-10-26T17:05:32.692Z,15.10
2022-10-26T17:07:59.263Z,15.00
2022-10-26T17:10:27.854Z,15.00
2022-10-26T17:12:55.318Z,14.90
2022-10-26T17:15:23.260Z,14.90
2022-10-26T17:17:51.895Z,14.90
2022-10-26T17:20:18.550Z,14.90
2022-10-26T17:22:45.134Z,14.90
2022-10-26T17:25:11.669Z,14.80
2022-10-26T17:27:38.226Z,14.80
2022-10-26T17:30:04.984Z,14.70
2022-10-26T17:32:31.552Z,14.70
2022-10-26T17:34:58.107Z,14.60
2022-10-26T17:37:24.775Z,14.60
2022-10-26T17:39:51.337Z,14.60
2022-10-26T17:42:17.883Z,14.60
2022-10-26T17:44:44.438Z,14.60
2022-10-26T17:47:10.992Z,14.60
2022-10-26T17:49:37.523Z,14.50
2022-10-26T17:52:04.575Z,14.50
2022-10-26T17:54:31.141Z,14.50
2022-10-26T17:56:57.687Z,14.50
2022-10-26T17:59:24.238Z,14.50
2022-10-26T18:01:50.902Z,14.50
2022-10-26T18:04:17.491Z,14.40
2022-10-26T18:06:44.042Z,14.40
2022-10-26T18:09:10.603Z,14.30
2022-10-26T18:11:37.156Z,14.20
2022-10-26T18:14:03.849Z,14.20
2022-10-26T18:16:31.095Z,14.20
2022-10-26T18:19:00.276Z,14.20
2022-10-26T18:21:27.416Z,14.10
2022-10-26T18:23:54.260Z,14.10
2022-10-26T18:26:21.615Z,14.10
2022-10-26T18:28:48.162Z,14.10
2022-10-26T18:31:15.432Z,14.10
2022-10-26T18:33:42.012Z,14.10
2022-10-26T18:36:12.372Z,14.00
2022-10-26T18:38:39.993Z,14.00
2022-10-26T18:41:07.129Z,14.00
2022-10-26T18:43:33.766Z,14.10
2022-10-26T18:46:06.817Z,14.00
2022-10-26T18:48:33.372Z,14.00
2022-10-26T18:51:06.746Z,14.00
2022-10-26T18:53:34.113Z,14.00
2022-10-26T18:56:04.595Z,14.00
2022-10-26T18:58:31.580Z,14.00
2022-10-26T19:01:17.904Z,14.00
2022-10-26T19:03:44.574Z,14.00
2022-10-26T19:06:21.455Z,14.00
2022-10-26T19:08:47.991Z,14.00
2022-10-26T19:11:15.328Z,14.00
2022-10-26T19:13:42.496Z,14.00
2022-10-26T19:16:17.201Z,14.00
2022-10-26T19:18:56.610Z,14.10
2022-10-26T19:21:23.347Z,14.10
2022-10-26T19:23:53.329Z,14.10
2022-10-26T19:26:21.027Z,14.10
2022-10-26T19:28:48.274Z,14.20
2022-10-26T19:31:14.827Z,14.10
2022-10-26T19:33:41.438Z,14.10
2022-10-26T19:36:08.628Z,14.00
2022-10-26T19:38:35.181Z,14.10
2022-10-26T19:41:02.417Z,14.10
2022-10-26T19:43:29.608Z,14.00
2022-10-26T19:45:56.473Z,13.90
2022-10-26T19:48:24.807Z,13.90
2022-10-26T19:50:52.657Z,13.80
2022-10-26T19:53:21.227Z,13.80
2022-10-26T19:55:48.280Z,13.80
2022-10-26T19:58:14.944Z,13.80
2022-10-26T20:00:41.641Z,13.80
2022-10-26T20:03:08.994Z,13.90
2022-10-26T20:05:37.859Z,13.80
2022-10-26T20:08:05.547Z,13.80
2022-10-26T20:10:32.083Z,13.70
2022-10-26T20:12:58.635Z,13.70
2022-10-26T20:15:27.036Z,13.50
2022-10-26T20:17:53.597Z,13.40
2022-10-26T20:20:20.119Z,13.30
2022-10-26T20:22:46.785Z,13.30
2022-10-26T20:25:13.477Z,13.20
2022-10-26T20:27:41.806Z,13.10
2022-10-26T20:30:09.037Z,13.10
2022-10-26T20:32:35.585Z,13.10
2022-10-26T20:35:02.121Z,13.10
2022-10-26T20:37:28.817Z,13.00
2022-10-26T20:39:55.435Z,13.10
2022-10-26T20:42:25.587Z,13.10
2022-10-26T20:44:53.236Z,13.10
2022-10-26T20:47:19.973Z,13.10
2022-10-26T20:49:46.646Z,13.10
2022-10-26T20:52:21.083Z,13.10
2022-10-26T20:54:52.629Z,13.10
2022-10-26T20:57:20.009Z,13.10
2022-10-26T20:59:47.531Z,13.10
2022-10-26T21:02:14.137Z,13.00
2022-10-26T21:04:40.666Z,13.00
2022-10-26T21:07:07.221Z,12.90
2022-10-26T21:09:36.545Z,12.90
2022-10-26T21:12:03.725Z,13.00
2022-10-26T21:14:30.262Z,13.00
2022-10-26T21:16:56.819Z,12.90
2022-10-26T21:19:23.384Z,12.90
2022-10-26T21:21:49.932Z,12.90
2022-10-26T21:24:16.466Z,12.90
2022-10-26T21:26:43.020Z,12.90
2022-10-26T21:29:10.039Z,12.80
2022-10-26T21:31:36.584Z,12.90
2022-10-26T21:34:03.142Z,12.80
2022-10-26T21:36:29.699Z,12.80
2022-10-26T21:38:56.277Z,12.80
2022-10-26T21:44:03.456Z,12.70
2022-10-26T21:46:37.600Z,12.80
2022-10-26T21:49:04.263Z,12.80
2022-10-26T21:51:30.807Z,12.80
2022-10-26T21:53:58.337Z,12.80
2022-10-26T21:56:24.913Z,12.80
2022-10-26T21:58:51.469Z,12.80
2022-10-26T22:01:18.899Z,12.80
2022-10-26T22:03:45.605Z,12.70
2022-10-26T22:06:12.762Z,12.70
2022-10-26T22:08:39.431Z,12.70
2022-10-26T22:11:13.021Z,12.80
2022-10-26T22:13:41.093Z,12.80
2022-10-26T22:16:11.725Z,12.80
2022-10-26T22:18:38.726Z,12.80
2022-10-26T22:21:05.348Z,12.70
2022-10-26T22:23:32.512Z,12.70
2022-10-26T22:26:02.978Z,12.70
2022-10-26T22:28:32.059Z,12.70
2022-10-26T22:31:03.015Z,12.70
2022-10-26T22:33:29.561Z,12.70
2022-10-26T22:35:56.130Z,12.70
2022-10-26T22:38:22.777Z,12.70
2022-10-26T22:40:55.705Z,12.60
2022-10-26T22:43:22.377Z,12.60
2022-10-26T22:45:48.931Z,12.60
2022-10-26T22:48:15.508Z,12.60
2022-10-26T22:50:42.080Z,12.50
2022-10-26T22:53:08.633Z,12.50
2022-10-26T22:55:35.169Z,12.50
2022-10-26T22:58:01.707Z,12.50
2022-10-26T23:00:28.334Z,12.40
2022-10-26T23:02:54.888Z,12.40
2022-10-26T23:05:21.452Z,12.40
2022-10-26T23:07:48.314Z,12.40
2022-10-26T23:10:15.076Z,12.40
2022-10-26T23:12:41.653Z,12.40
2022-10-26T23:15:08.441Z,12.40
2022-10-26T23:17:34.992Z,12.40
2022-10-26T23:20:01.519Z,12.40
2022-10-26T23:22:28.083Z,12.30
2022-10-26T23:24:54.619Z,12.30
2022-10-26T23:27:21.169Z,12.40
2022-10-26T23:29:47.706Z,12.40
2022-10-26T23:32:14.263Z,12.40
2022-10-26T23:34:40.850Z,12.40
2022-10-26T23:37:07.410Z,12.30
2022-10-26T23:39:33.958Z,12.30
2022-10-26T23:42:00.517Z,12.20
2022-10-26T23:44:27.065Z,12.20
2022-10-26T23:46:53.614Z,12.20
2022-10-26T23:49:20.143Z,12.20
2022-10-26T23:51:46.760Z,12.20
2022-10-26T23:54:13.313Z,12.20
2022-10-26T23:56:39.861Z,12.20
2022-10-26T23:59:08.416Z,12.20
